createdAt,value
2024-03-12T00:00:57.879Z,45.56
2024-03-12T00:01:57.819Z,46.99
2024-03-12T00:02:57.784Z,48.04
2024-03-12T00:03:57.770Z,48.51
2024-03-12T00:04:57.714Z,49.34
2024-03-12T00:05:57.749Z,49.58
2024-03-12T00:06:57.762Z,49.99
2024-03-12T00:07:57.709Z,50.11
2024-03-12T00:08:57.660Z,49.75
2024-03-12T00:09:57.701Z,50.97
2024-03-12T00:10:57.733Z,52.50
2024-03-12T00:11:57.670Z,53.61
2024-03-12T00:12:57.769Z,54.73
2024-03-12T00:13:57.619Z,55.16
2024-03-12T00:14:57.603Z,55.45
2024-03-12T00:15:57.630Z,56.73
2024-03-12T00:16:57.598Z,57.43
2024-03-12T00:17:57.693Z,58.07
2024-03-12T00:18:57.654Z,57.75
2024-03-12T00:19:57.575Z,58.88
2024-03-12T00:20:57.550Z,58.23
2024-03-12T00:21:57.562Z,58.68
2024-03-12T00:22:57.560Z,59.72
2024-03-12T00:23:57.517Z,60.63
2024-03-12T00:24:57.525Z,60.72
2024-03-12T00:25:57.588Z,60.59
2024-03-12T00:26:57.486Z,60.33
2024-03-12T00:27:57.564Z,59.55
2024-03-12T00:28:57.481Z,59.72
2024-03-12T00:29:57.457Z,58.55
2024-03-12T00:30:57.488Z,59.22
2024-03-12T00:31:57.447Z,59.09
2024-03-12T00:32:57.468Z,59.13
2024-03-12T00:33:57.488Z,59.90
2024-03-12T00:34:57.418Z,59.26
2024-03-12T00:35:57.383Z,59.01
2024-03-12T00:36:57.440Z,58.31
2024-03-12T00:37:57.390Z,57.47
2024-03-12T00:38:57.361Z,56.92
2024-03-12T00:39:57.443Z,56.42
2024-03-12T00:40:57.339Z,56.92
2024-03-12T00:41:57.352Z,56.16
2024-03-12T00:42:57.362Z,56.05
2024-03-12T00:43:57.345Z,55.53
2024-03-12T00:44:57.297Z,54.87
2024-03-12T00:45:57.345Z,53.81
2024-03-12T00:46:57.286Z,53.33
2024-03-12T00:47:57.300Z,52.30
2024-03-12T00:48:57.305Z,51.03
2024-03-12T00:49:59.532Z,50.93
2024-03-12T00:50:57.258Z,50.84
2024-03-12T00:51:57.278Z,49.99
2024-03-12T00:52:57.225Z,49.61
2024-03-12T00:53:57.207Z,49.78
2024-03-12T00:54:57.233Z,49.05
2024-03-12T00:55:57.236Z,48.88
2024-03-12T00:56:57.191Z,48.10
2024-03-12T00:57:57.204Z,48.10
2024-03-12T00:58:57.168Z,47.33
2024-03-12T00:59:57.150Z,47.44
2024-03-12T01:00:57.237Z,46.78
2024-03-12T01:01:57.150Z,46.96
2024-03-12T01:02:57.105Z,46.32
2024-03-12T01:03:57.177Z,46.63
2024-03-12T01:04:57.096Z,45.81
2024-03-12T01:05:57.096Z,46.16
2024-03-12T01:06:57.097Z,45.61
2024-03-12T01:07:57.067Z,45.27
2024-03-12T01:08:57.041Z,44.83
2024-03-12T01:09:57.112Z,44.78
2024-03-12T01:10:57.043Z,44.50
2024-03-12T01:11:57.058Z,43.98
2024-03-12T01:12:57.064Z,43.71
2024-03-12T01:13:57.010Z,43.89
2024-03-12T01:14:57.008Z,42.95
2024-03-12T01:15:57.032Z,42.51
2024-03-12T01:16:56.981Z,42.00
2024-03-12T01:17:57.027Z,41.96
2024-03-12T01:18:57.081Z,41.62
2024-03-12T01:19:56.932Z,40.62
2024-03-12T01:20:56.937Z,40.81
2024-03-12T01:21:56.941Z,40.34
2024-03-12T01:22:56.896Z,39.88
2024-03-12T01:23:56.906Z,40.03
2024-03-12T01:24:56.957Z,39.54
2024-03-12T01:25:56.864Z,38.78
2024-03-12T01:26:56.852Z,38.74
2024-03-12T01:27:57.408Z,38.24
2024-03-12T01:28:56.856Z,37.76
2024-03-12T01:29:56.872Z,37.56
2024-03-12T01:30:56.916Z,36.70
2024-03-12T01:31:56.819Z,36.04
2024-03-12T01:32:56.829Z,35.86
2024-03-12T01:33:56.847Z,35.64
2024-03-12T01:34:56.777Z,35.02
2024-03-12T01:35:56.818Z,34.78
2024-03-12T01:36:56.822Z,34.61
2024-03-12T01:37:56.739Z,34.27
2024-03-12T01:38:56.744Z,34.27
2024-03-12T01:39:56.782Z,33.48
2024-03-12T01:40:56.704Z,33.19
2024-03-12T01:41:56.755Z,33.06
2024-03-12T01:42:56.716Z,32.47
2024-03-12T01:43:56.676Z,31.97
2024-03-12T01:44:56.655Z,31.52
2024-03-12T01:45:56.685Z,31.42
2024-03-12T01:46:56.672Z,31.44
2024-03-12T01:47:56.750Z,31.21
2024-03-12T01:48:56.698Z,30.84
2024-03-12T01:49:56.619Z,30.57
2024-03-12T01:50:56.604Z,30.44
2024-03-12T01:51:56.573Z,30.31
2024-03-12T01:52:56.588Z,30.44
2024-03-12T01:53:56.597Z,30.31
2024-03-12T01:54:56.633Z,30.03
2024-03-12T01:55:56.560Z,29.96
2024-03-12T01:56:56.539Z,29.69
2024-03-12T01:57:56.566Z,29.96
2024-03-12T01:58:56.523Z,29.69
2024-03-12T01:59:56.789Z,29.69
2024-03-12T02:00:56.584Z,29.58
2024-03-12T02:01:56.534Z,29.48
2024-03-12T02:02:56.489Z,29.44
2024-03-12T02:03:56.490Z,29.35
2024-03-12T02:04:56.492Z,29.31
2024-03-12T02:05:56.444Z,29.23
2024-03-12T02:06:56.495Z,29.54
2024-03-12T02:07:56.423Z,29.25
2024-03-12T02:08:56.400Z,29.25
2024-03-12T02:09:56.465Z,29.27
2024-03-12T02:10:56.463Z,29.33
2024-03-12T02:11:56.357Z,29.60
2024-03-12T02:12:56.436Z,29.83
2024-03-12T02:13:56.770Z,30.35
2024-03-12T02:14:56.334Z,30.18
2024-03-12T02:15:56.377Z,30.57
2024-03-12T02:16:56.352Z,30.53
2024-03-12T02:17:56.368Z,30.49
2024-03-12T02:18:56.336Z,30.46
2024-03-12T02:19:56.289Z,30.24
2024-03-12T02:20:56.274Z,30.26
2024-03-12T02:21:56.329Z,29.92
2024-03-12T02:22:56.329Z,29.62
2024-03-12T02:23:56.245Z,29.54
2024-03-12T02:24:56.252Z,29.50
2024-03-12T02:25:56.261Z,29.29
2024-03-12T02:26:56.214Z,29.15
2024-03-12T02:27:56.233Z,28.97
2024-03-12T02:28:56.209Z,29.11
2024-03-12T02:29:56.210Z,29.09
2024-03-12T02:30:56.215Z,29.25
2024-03-12T02:31:56.150Z,29.42
2024-03-12T02:32:56.176Z,30.00
2024-03-12T02:33:56.184Z,29.96
2024-03-12T02:34:56.157Z,30.64
2024-03-12T02:35:56.125Z,31.61
2024-03-12T02:36:56.125Z,31.85
2024-03-12T02:37:56.111Z,32.70
2024-03-12T02:38:56.076Z,33.08
2024-03-12T02:39:56.519Z,34.33
2024-03-12T02:40:56.073Z,36.10
2024-03-12T02:41:56.066Z,37.53
2024-03-12T02:42:56.088Z,39.43
2024-03-12T02:43:56.033Z,41.01
2024-03-12T02:44:56.021Z,42.30
2024-03-12T02:45:56.129Z,44.17
2024-03-12T02:46:55.999Z,45.31
2024-03-12T02:47:56.259Z,44.93
2024-03-12T02:50:06.350Z,44.45
2024-03-12T02:51:07.347Z,44.69
2024-03-12T02:52:07.356Z,45.71
2024-03-12T02:53:07.294Z,46.57
2024-03-12T02:54:07.269Z,47.55
2024-03-12T02:55:07.339Z,49.26
2024-03-12T02:56:07.260Z,50.69
2024-03-12T02:57:07.286Z,51.94
2024-03-12T02:58:07.300Z,52.93
2024-03-12T02:59:07.233Z,54.16
2024-03-12T03:00:07.225Z,55.49
2024-03-12T03:01:07.329Z,55.90
2024-03-12T03:02:07.180Z,56.54
2024-03-12T03:03:07.183Z,56.62
2024-03-12T03:04:07.230Z,56.39
2024-03-12T03:05:07.151Z,55.78
2024-03-12T03:06:07.158Z,55.20
2024-03-12T03:07:07.194Z,54.87
2024-03-12T03:08:07.142Z,54.51
2024-03-12T03:09:07.123Z,53.92
2024-03-12T03:10:07.301Z,55.16
2024-03-12T03:11:07.196Z,55.34
2024-03-12T03:12:07.094Z,56.50
2024-03-12T03:13:07.218Z,57.67
2024-03-12T03:14:07.068Z,58.19
2024-03-12T03:15:07.126Z,59.47
2024-03-12T03:16:07.180Z,59.81
2024-03-12T03:17:07.055Z,61.03
2024-03-12T03:18:07.065Z,62.30
2024-03-12T03:19:07.080Z,63.48
2024-03-12T03:20:06.978Z,65.62
2024-03-12T03:21:06.989Z,65.67
2024-03-12T03:22:07.076Z,65.01
2024-03-12T03:23:06.963Z,64.91
2024-03-12T03:24:06.967Z,65.26
2024-03-12T03:25:06.997Z,64.51
2024-03-12T03:26:06.936Z,63.48
2024-03-12T03:27:06.970Z,63.34
2024-03-12T03:28:06.993Z,63.00
2024-03-12T03:29:06.908Z,63.29
2024-03-12T03:30:06.872Z,64.16
2024-03-12T03:31:06.918Z,64.46
2024-03-12T03:32:06.881Z,64.81
2024-03-12T03:33:06.944Z,64.61
2024-03-12T03:34:06.939Z,65.21
2024-03-12T03:35:06.853Z,65.67
2024-03-12T03:36:06.838Z,66.77
2024-03-12T03:37:06.845Z,68.18
2024-03-12T03:38:06.808Z,68.35
2024-03-12T03:39:06.830Z,68.74
2024-03-12T03:40:06.849Z,68.74
2024-03-12T03:41:06.762Z,69.54
2024-03-12T03:42:06.753Z,69.43
2024-03-12T03:43:06.842Z,69.03
2024-03-12T03:44:06.754Z,67.69
2024-03-12T03:45:06.802Z,67.36
2024-03-12T03:46:06.798Z,66.24
2024-03-12T03:47:06.782Z,65.26
2024-03-12T03:48:06.824Z,64.41
2024-03-12T03:49:06.782Z,62.53
2024-03-12T03:50:06.709Z,62.53
2024-03-12T03:51:06.686Z,61.30
2024-03-12T03:52:06.825Z,61.57
2024-03-12T03:53:06.645Z,60.99
2024-03-12T03:54:06.630Z,61.70
2024-03-12T03:55:06.668Z,61.12
2024-03-12T03:56:06.655Z,62.21
2024-03-12T03:57:06.629Z,63.10
2024-03-12T03:58:06.674Z,64.46
2024-03-12T03:59:06.760Z,65.93
2024-03-12T04:00:06.582Z,67.04
2024-03-12T04:01:06.653Z,67.85
2024-03-12T04:02:06.623Z,69.31
2024-03-12T04:03:06.552Z,70.01
2024-03-12T04:04:06.620Z,71.56
2024-03-12T04:05:06.832Z,74.43
2024-03-12T04:06:06.517Z,76.82
2024-03-12T04:07:06.620Z,78.91
2024-03-12T04:08:06.512Z,79.97
2024-03-12T04:09:06.486Z,80.89
2024-03-12T04:10:06.541Z,81.45
2024-03-12T04:11:06.487Z,82.08
2024-03-12T04:12:06.472Z,82.73
2024-03-12T04:13:06.513Z,83.39
2024-03-12T04:14:06.465Z,86.49
2024-03-12T04:15:06.436Z,90.42
2024-03-12T04:16:06.460Z,95.25
2024-03-12T04:17:06.389Z,96.88
2024-03-12T04:18:06.463Z,101.09
2024-03-12T04:19:06.558Z,104.23
2024-03-12T04:20:06.369Z,106.08
2024-03-12T04:21:06.407Z,108.06
2024-03-12T04:22:06.426Z,108.91
2024-03-12T04:23:06.333Z,110.05
2024-03-12T04:24:06.328Z,114.02
2024-03-12T04:25:06.362Z,118.46
2024-03-12T04:26:06.329Z,125.66
2024-03-12T04:27:06.377Z,128.95
2024-03-12T04:28:06.316Z,133.25
2024-03-12T04:29:06.293Z,136.51
2024-03-12T04:30:06.251Z,138.43
2024-03-12T04:31:06.319Z,144.77
2024-03-12T04:32:06.246Z,151.58
2024-03-12T04:33:06.312Z,167.16
2024-03-12T04:34:06.236Z,180.69
2024-03-12T04:35:06.200Z,186.11
2024-03-12T04:36:06.188Z,194.12
2024-03-12T04:37:06.360Z,197.85
2024-03-12T04:38:06.148Z,200.38
2024-03-12T04:39:06.180Z,200.26
2024-03-12T04:40:06.178Z,193.55
2024-03-12T04:41:06.124Z,190.86
2024-03-12T04:42:06.346Z,189.10
2024-03-12T04:43:06.194Z,187.49
2024-03-12T04:44:06.097Z,192.64
2024-03-12T04:45:06.118Z,198.69
2024-03-12T04:46:06.130Z,209.16
2024-03-12T04:47:06.104Z,220.21
2024-03-12T04:48:06.110Z,219.48
2024-03-12T04:49:06.119Z,214.75
2024-03-12T04:50:06.054Z,207.19
2024-03-12T04:51:06.064Z,197.02
2024-03-12T04:52:06.086Z,185.90
2024-03-12T04:53:06.007Z,180.49
2024-03-12T04:54:05.997Z,167.50
2024-03-12T04:55:06.158Z,158.47
2024-03-12T04:56:06.015Z,149.96
2024-03-12T04:57:06.023Z,144.52
2024-03-12T04:58:06.070Z,141.23
2024-03-12T04:59:05.964Z,137.86
2024-03-12T05:00:05.934Z,134.75
2024-03-12T05:01:06.061Z,134.75
2024-03-12T05:02:05.959Z,137.86
2024-03-12T05:03:05.929Z,138.09
2024-03-12T05:04:12.340Z,138.32
2024-03-12T05:05:05.876Z,139.24
2024-03-12T05:06:05.874Z,139.24
2024-03-12T05:07:06.018Z,138.54
2024-03-12T05:08:05.847Z,142.80
2024-03-12T05:09:05.848Z,146.03
2024-03-12T05:10:06.049Z,149.55
2024-03-12T05:11:05.858Z,154.38
2024-03-12T05:12:05.863Z,165.68
2024-03-12T05:13:05.867Z,187.70
2024-03-12T05:14:05.785Z,204.49
2024-03-12T05:15:05.777Z,216.02
2024-03-12T05:16:05.819Z,229.09
2024-03-12T05:17:05.779Z,236.67
2024-03-12T05:18:05.855Z,239.07
2024-03-12T05:19:05.820Z,245.49
2024-03-12T05:20:05.753Z,247.70
2024-03-12T05:21:05.720Z,245.12
2024-03-12T05:22:05.785Z,245.12
2024-03-12T05:23:05.719Z,241.52
2024-03-12T05:24:05.693Z,237.69
2024-03-12T05:25:05.716Z,240.47
2024-03-12T05:26:05.661Z,246.96
2024-03-12T05:27:05.670Z,259.41
2024-03-12T05:28:05.701Z,265.69
2024-03-12T05:29:05.671Z,258.59
2024-03-12T05:30:05.620Z,256.38
2024-03-12T05:31:05.735Z,253.42
2024-03-12T05:32:05.625Z,253.62
2024-03-12T05:33:05.716Z,256.18
2024-03-12T05:34:05.679Z,264.19
2024-03-12T05:35:05.601Z,269.38
2024-03-12T05:36:05.570Z,266.33
2024-03-12T05:37:05.720Z,254.01
2024-03-12T05:38:06.446Z,241.70
2024-03-12T05:39:05.566Z,233.15
2024-03-12T05:40:05.590Z,223.04
2024-03-12T05:41:05.548Z,218.46
2024-03-12T05:42:05.527Z,216.30
2024-03-12T05:43:05.613Z,219.18
2024-03-12T05:44:05.499Z,223.95
2024-03-12T05:45:05.496Z,224.41
2024-03-12T05:46:05.634Z,227.04
2024-03-12T05:47:05.485Z,227.35
2024-03-12T05:48:05.520Z,225.33
2024-03-12T05:49:05.534Z,226.26
2024-03-12T05:50:05.422Z,235.82
2024-03-12T05:51:05.434Z,245.49
2024-03-12T05:52:05.548Z,245.12
2024-03-12T05:53:05.408Z,246.40
2024-03-12T05:54:05.378Z,249.39
2024-03-12T05:55:05.401Z,252.26
2024-03-12T05:56:05.352Z,261.88
2024-03-12T05:57:05.398Z,273.63
2024-03-12T05:58:05.392Z,286.24
2024-03-12T05:59:05.338Z,302.54
2024-03-12T06:00:05.341Z,323.33
2024-03-12T06:01:05.428Z,342.14
2024-03-12T06:02:05.366Z,359.31
2024-03-12T06:03:05.353Z,364.88
2024-03-12T06:04:05.392Z,352.39
2024-03-12T06:05:05.270Z,346.46
2024-03-12T06:06:05.263Z,361.28
2024-03-12T06:07:05.328Z,366.10
2024-03-12T06:08:05.260Z,364.48
2024-03-12T06:09:05.265Z,346.82
2024-03-12T06:10:05.301Z,328.82
2024-03-12T06:11:05.349Z,334.49
2024-03-12T06:12:05.245Z,334.83
2024-03-12T06:13:05.283Z,327.84
2024-03-12T06:14:05.235Z,318.33
2024-03-12T06:15:05.236Z,307.91
2024-03-12T06:16:05.268Z,319.88
2024-03-12T06:17:05.161Z,331.47
2024-03-12T06:18:05.174Z,343.57
2024-03-12T06:19:05.272Z,356.97
2024-03-12T06:20:06.130Z,370.22
2024-03-12T06:21:05.126Z,394.89
2024-03-12T06:22:05.140Z,407.38
2024-03-12T06:23:05.100Z,419.64
2024-03-12T06:24:05.101Z,427.96
2024-03-12T06:25:05.190Z,416.51
2024-03-12T06:26:05.114Z,429.06
2024-03-12T06:27:05.058Z,421.76
2024-03-12T06:28:05.131Z,424.97
2024-03-12T06:29:05.053Z,421.23
2024-03-12T06:30:05.059Z,417.03
2024-03-12T06:31:05.325Z,423.36
2024-03-12T06:32:05.077Z,429.61
2024-03-12T06:33:05.028Z,446.82
2024-03-12T06:34:04.988Z,488.92
2024-03-12T06:35:04.984Z,504.39
2024-03-12T06:36:04.976Z,495.80
2024-03-12T06:37:05.075Z,510.94
2024-03-12T06:38:04.976Z,535.89
2024-03-12T06:39:04.975Z,550.89
2024-03-12T06:40:04.933Z,560.58
2024-03-12T06:41:04.914Z,549.98
2024-03-12T06:42:07.630Z,542.41
2024-03-12T06:43:04.924Z,531.64
2024-03-12T06:44:04.879Z,517.66
2024-03-12T06:45:04.941Z,509.00
2024-03-12T06:46:04.897Z,485.73
2024-03-12T06:47:04.836Z,474.37
2024-03-12T06:48:04.852Z,466.11
2024-03-12T06:49:04.848Z,444.44
2024-03-12T06:51:04.807Z,395.35
2024-03-12T06:52:04.886Z,379.44
2024-03-12T06:53:04.837Z,358.14
2024-03-12T06:54:04.761Z,335.86
2024-03-12T06:55:04.787Z,305.06
2024-03-12T06:56:04.742Z,285.49
2024-03-12T06:57:04.746Z,267.41
2024-03-12T06:58:04.816Z,258.19
2024-03-12T06:59:04.810Z,249.20
2024-03-12T07:00:04.693Z,236.67
2024-03-12T07:01:04.753Z,229.41
2024-03-12T07:02:04.767Z,226.41
2024-03-12T07:03:04.665Z,220.21
2024-03-12T07:04:04.736Z,209.03
2024-03-12T07:05:04.672Z,200.62
2024-03-12T07:06:04.692Z,194.92
2024-03-12T07:07:04.725Z,188.46
2024-03-12T07:08:04.643Z,187.60
2024-03-12T07:09:04.607Z,182.86
2024-03-12T07:10:04.721Z,177.06
2024-03-12T07:11:04.639Z,172.32
2024-03-12T07:12:05.187Z,169.36
2024-03-12T07:13:04.595Z,170.74
2024-03-12T07:14:04.551Z,167.33
2024-03-12T07:15:04.556Z,163.73
2024-03-12T07:16:04.663Z,161.52
2024-03-12T07:17:04.519Z,161.21
2024-03-12T07:18:04.555Z,164.70
2024-03-12T07:19:04.506Z,170.05
2024-03-12T07:20:04.478Z,176.87
2024-03-12T07:21:04.484Z,186.32
2024-03-12T07:22:04.532Z,194.81
2024-03-12T07:23:04.442Z,204.61
2024-03-12T07:24:04.507Z,211.85
2024-03-12T07:25:04.464Z,215.31
2024-03-12T07:26:04.428Z,216.02
2024-03-12T07:27:04.411Z,214.75
2024-03-12T07:28:04.457Z,217.45
2024-03-12T07:29:04.380Z,216.16
2024-03-12T07:30:04.414Z,222.29
2024-03-12T07:31:04.621Z,220.65
2024-03-12T07:32:04.646Z,228.30
2024-03-12T07:33:04.944Z,239.77
2024-03-12T07:34:04.371Z,246.40
2024-03-12T07:35:04.346Z,258.19
2024-03-12T07:36:04.361Z,267.20
2024-03-12T07:37:04.355Z,278.26
2024-03-12T07:38:05.016Z,276.85
2024-03-12T07:39:04.295Z,274.55
2024-03-12T07:40:04.310Z,275.92
2024-03-12T07:41:04.290Z,279.91
2024-03-12T07:42:04.255Z,281.35
2024-03-12T07:43:04.276Z,279.44
2024-03-12T07:44:04.236Z,288.24
2024-03-12T07:45:04.237Z,296.28
2024-03-12T07:46:04.236Z,315.58
2024-03-12T07:47:04.231Z,319.88
2024-03-12T07:48:04.252Z,327.51
2024-03-12T07:49:04.246Z,330.14
2024-03-12T07:50:04.180Z,326.86
2024-03-12T07:51:04.165Z,323.97
2024-03-12T07:52:04.164Z,321.44
2024-03-12T07:53:04.202Z,313.78
2024-03-12T07:54:04.119Z,308.78
2024-03-12T07:55:04.195Z,302.26
2024-03-12T07:56:04.100Z,300.33
2024-03-12T07:57:04.089Z,290.27
2024-03-12T07:58:04.170Z,280.15
2024-03-12T07:59:04.100Z,281.35
2024-03-12T08:00:04.067Z,298.70
2024-03-12T08:01:04.121Z,296.81
2024-03-12T08:02:04.061Z,302.82
2024-03-12T08:03:04.013Z,312.59
2024-03-12T08:04:04.058Z,322.70
2024-03-12T08:05:04.051Z,325.25
2024-03-12T08:06:04.018Z,332.80
2024-03-12T08:07:04.077Z,328.82
2024-03-12T08:08:03.959Z,322.38
2024-03-12T08:09:03.949Z,324.61
2024-03-12T08:10:04.040Z,329.81
2024-03-12T08:11:04.060Z,328.82
2024-03-12T08:12:03.942Z,322.70
2024-03-12T08:13:03.982Z,323.33
2024-03-12T08:14:03.919Z,324.61
2024-03-12T08:15:03.902Z,322.38
2024-03-12T08:16:03.992Z,310.82
2024-03-12T08:17:03.930Z,304.78
2024-03-12T08:18:12.903Z,307.34
2024-03-12T08:19:03.986Z,313.48
2024-03-12T08:20:03.849Z,313.18
2024-03-12T08:21:03.825Z,306.20
2024-03-12T08:22:03.916Z,286.73
2024-03-12T08:23:03.815Z,281.11
2024-03-12T08:24:03.827Z,280.39
2024-03-12T08:25:03.978Z,280.15
2024-03-12T08:26:03.894Z,282.07
2024-03-12T08:27:03.788Z,288.24
2024-03-12T08:28:03.807Z,314.98
2024-03-12T08:29:03.742Z,343.21
2024-03-12T08:30:03.798Z,367.74
2024-03-12T08:31:08.794Z,379.22
2024-03-12T08:32:03.791Z,394.42
2024-03-12T08:33:03.797Z,411.64
2024-03-12T08:34:03.729Z,426.60
2024-03-12T08:35:03.682Z,433.79
2024-03-12T08:36:03.695Z,445.92
2024-03-12T08:37:03.687Z,458.45
2024-03-12T08:38:03.660Z,459.39
2024-03-12T08:39:03.689Z,453.78
2024-03-12T08:40:03.756Z,473.69
2024-03-12T08:41:03.641Z,476.73
2024-03-12T08:42:03.623Z,467.08
2024-03-12T08:43:06.231Z,464.81
2024-03-12T08:44:03.569Z,467.74
2024-03-12T08:45:03.629Z,467.74
2024-03-12T08:46:03.611Z,470.70
2024-03-12T08:47:03.540Z,459.70
2024-03-12T08:48:03.592Z,463.20
2024-03-12T08:49:03.602Z,460.65
2024-03-12T08:50:03.529Z,457.82
2024-03-12T08:51:03.520Z,438.62
2024-03-12T08:52:03.603Z,437.18
2024-03-12T08:53:03.553Z,433.22
2024-03-12T08:54:03.491Z,433.22
2024-03-12T08:55:03.503Z,434.91
2024-03-12T08:56:03.505Z,435.48
2024-03-12T08:57:03.514Z,432.66
2024-03-12T08:58:03.608Z,433.79
2024-03-12T08:59:03.443Z,454.09
2024-03-12T09:00:03.436Z,470.70
2024-03-12T09:01:03.658Z,461.92
2024-03-12T09:02:03.390Z,457.82
2024-03-12T09:03:03.467Z,459.07
2024-03-12T09:04:03.529Z,444.74
2024-03-12T09:05:03.357Z,434.63
2024-03-12T09:06:03.368Z,417.03
2024-03-12T09:07:03.415Z,398.17
2024-03-12T09:08:03.339Z,383.35
2024-03-12T09:09:03.368Z,370.22
2024-03-12T09:10:03.523Z,377.43
2024-03-12T09:11:03.337Z,382.47
2024-03-12T09:12:03.314Z,377.00
2024-03-12T09:13:03.360Z,386.23
2024-03-12T09:14:03.260Z,389.60
2024-03-12T09:15:03.249Z,411.39
2024-03-12T09:16:03.382Z,419.12
2024-03-12T09:17:03.242Z,410.13
2024-03-12T09:18:03.275Z,393.95
2024-03-12T09:19:03.301Z,389.37
2024-03-12T09:20:03.185Z,399.36
2024-03-12T09:21:03.196Z,403.94
2024-03-12T09:22:03.245Z,401.52
2024-03-12T09:23:03.194Z,402.24
2024-03-12T09:24:03.287Z,421.23
2024-03-12T09:25:03.266Z,421.76
2024-03-12T09:26:03.144Z,422.29
2024-03-12T09:27:03.141Z,419.91
2024-03-12T09:28:03.169Z,408.13
2024-03-12T09:29:03.113Z,388.69
2024-03-12T09:30:03.090Z,369.80
2024-03-12T09:31:03.111Z,380.08
2024-03-12T09:32:03.085Z,372.73
2024-03-12T09:33:03.159Z,365.69
2024-03-12T09:34:03.239Z,360.49
2024-03-12T09:35:03.054Z,356.97
2024-03-12T09:36:03.064Z,355.05
2024-03-12T09:37:03.044Z,348.29
2024-03-12T09:38:03.045Z,345.01
2024-03-12T09:39:03.023Z,347.92
2024-03-12T09:40:03.217Z,352.39
2024-03-12T09:41:03.003Z,342.50
2024-03-12T09:42:02.996Z,330.14
2024-03-12T09:43:02.995Z,316.49
2024-03-12T09:44:05.743Z,317.41
2024-03-12T09:45:02.984Z,314.38
2024-03-12T09:46:03.039Z,310.82
2024-03-12T09:47:02.986Z,294.95
2024-03-12T09:48:02.954Z,287.23
2024-03-12T09:49:02.956Z,275.00
2024-03-12T09:50:05.727Z,260.85
2024-03-12T09:51:02.875Z,253.42
2024-03-12T09:52:02.923Z,247.14
2024-03-12T09:53:02.893Z,239.42
2024-03-12T09:54:02.908Z,233.31
2024-03-12T09:55:02.932Z,224.10
2024-03-12T09:56:04.133Z,211.44
2024-03-12T09:57:03.120Z,200.75
2024-03-12T09:58:02.868Z,193.44
2024-03-12T09:59:02.804Z,185.29
2024-03-12T10:00:02.808Z,170.57
2024-03-12T10:01:02.852Z,160.29
2024-03-12T10:02:05.687Z,155.52
2024-03-12T10:03:02.764Z,151.86
2024-03-12T10:04:02.784Z,151.04
2024-03-12T10:05:02.793Z,151.04
2024-03-12T10:06:02.712Z,148.23
2024-03-12T10:07:02.827Z,143.53
2024-03-12T10:08:05.378Z,137.97
2024-03-12T10:09:02.687Z,138.89
2024-03-12T10:10:02.755Z,138.89
2024-03-12T10:11:02.712Z,139.93
2024-03-12T10:12:02.820Z,138.09
2024-03-12T10:13:02.694Z,133.36
2024-03-12T10:14:05.571Z,134.00
2024-03-12T10:15:02.643Z,132.10
2024-03-12T10:16:02.628Z,130.35
2024-03-12T10:17:02.603Z,129.24
2024-03-12T10:18:02.662Z,128.95
2024-03-12T10:19:02.625Z,130.25
2024-03-12T10:20:04.447Z,134.65
2024-03-12T10:21:03.041Z,135.85
2024-03-12T10:22:02.609Z,131.99
2024-03-12T10:23:02.550Z,129.34
2024-03-12T10:24:02.535Z,127.18
2024-03-12T10:25:02.587Z,125.09
2024-03-12T10:26:04.514Z,125.37
2024-03-12T10:27:02.493Z,124.44
2024-03-12T10:28:07.699Z,125.85
2024-03-12T10:29:02.496Z,130.96
2024-03-12T10:30:02.451Z,139.35
2024-03-12T10:31:02.481Z,141.59
2024-03-12T10:32:03.793Z,145.02
2024-03-12T10:33:02.462Z,147.84
2024-03-12T10:34:02.472Z,146.29
2024-03-12T10:35:02.416Z,153.25
2024-03-12T10:36:02.402Z,149.42
2024-03-12T10:37:02.474Z,149.42
2024-03-12T10:38:04.333Z,151.58
2024-03-12T10:39:02.426Z,155.67
2024-03-12T10:40:02.416Z,154.38
2024-03-12T10:41:02.326Z,158.77
2024-03-12T10:42:02.362Z,181.67
2024-03-12T10:43:02.379Z,187.06
2024-03-12T10:44:04.182Z,187.92
2024-03-12T10:45:02.347Z,189.32
2024-03-12T10:46:02.372Z,184.67
2024-03-12T10:47:02.402Z,182.66
2024-03-12T10:48:02.336Z,189.65
2024-03-12T10:49:02.339Z,190.75
2024-03-12T10:50:02.270Z,193.66
2024-03-12T10:51:02.321Z,197.97
2024-03-12T10:52:02.342Z,207.97
2024-03-12T10:53:02.304Z,204.74
2024-03-12T10:54:02.218Z,219.91
2024-03-12T10:55:06.147Z,242.06
2024-03-12T10:56:04.323Z,269.38
2024-03-12T10:57:02.222Z,295.48
2024-03-12T10:58:02.333Z,316.49
2024-03-12T10:59:02.197Z,342.50
2024-03-12T11:00:02.310Z,380.73
2024-03-12T11:01:02.262Z,413.17
2024-03-12T11:02:03.820Z,445.92
2024-03-12T11:03:02.200Z,467.08
2024-03-12T11:04:02.193Z,481.19
2024-03-12T11:05:02.120Z,509.00
2024-03-12T11:06:02.112Z,520.88
2024-03-12T11:07:02.245Z,533.33
2024-03-12T11:08:03.974Z,542.85
2024-03-12T11:09:02.118Z,556.38
2024-03-12T11:10:02.096Z,560.11
2024-03-12T11:11:02.067Z,561.52
2024-03-12T11:12:02.085Z,559.64
2024-03-12T11:13:02.259Z,576.51
2024-03-12T11:14:03.661Z,562.93
2024-03-12T11:15:02.029Z,553.16
2024-03-12T11:16:02.018Z,563.88
2024-03-12T11:17:01.970Z,559.17
2024-03-12T11:18:02.036Z,525.38
2024-03-12T11:19:02.021Z,492.52
2024-03-12T11:20:03.322Z,476.39
2024-03-12T11:21:01.977Z,489.63
2024-03-12T11:22:01.958Z,492.15
2024-03-12T11:23:02.612Z,483.97
2024-03-12T11:24:01.913Z,489.99
2024-03-12T11:25:01.952Z,537.18
2024-03-12T11:26:01.879Z,572.57
2024-03-12T11:27:02.232Z,589.20
2024-03-12T11:28:01.955Z,672.69
2024-03-12T11:29:01.863Z,681.60
2024-03-12T11:30:01.871Z,656.85
2024-03-12T11:31:01.876Z,620.90
2024-03-12T11:32:01.834Z,580.51
2024-03-12T11:33:01.873Z,560.11
2024-03-12T11:34:01.849Z,544.17
2024-03-12T11:35:01.790Z,527.03
2024-03-12T11:36:01.775Z,500.62
2024-03-12T11:37:01.810Z,474.03
2024-03-12T11:38:01.783Z,490.71
2024-03-12T11:39:01.797Z,482.23
2024-03-12T11:40:01.819Z,474.70
2024-03-12T11:41:01.750Z,471.03
2024-03-12T11:42:02.237Z,469.38
2024-03-12T11:43:01.760Z,478.43
2024-03-12T11:44:01.720Z,459.70
2024-03-12T11:45:01.699Z,448.31
2024-03-12T11:46:01.702Z,447.11
2024-03-12T11:47:01.684Z,459.39
2024-03-12T11:48:01.673Z,473.69
2024-03-12T11:49:01.663Z,462.24
2024-03-12T11:50:03.688Z,475.38
2024-03-12T11:51:01.640Z,495.80
2024-03-12T11:52:01.638Z,505.15
2024-03-12T11:53:01.622Z,519.26
2024-03-12T11:54:01.590Z,513.68
2024-03-12T11:55:01.703Z,502.12
2024-03-12T11:56:02.946Z,496.17
2024-03-12T11:57:01.574Z,505.15
2024-03-12T11:58:01.602Z,524.97
2024-03-12T11:59:05.938Z,529.95
2024-03-12T12:00:01.543Z,542.85
2024-03-12T12:01:01.659Z,540.65
2024-03-12T12:02:03.993Z,565.31
2024-03-12T12:03:01.522Z,567.71
2024-03-12T12:04:01.699Z,571.59
2024-03-12T12:05:01.525Z,541.97
2024-03-12T12:06:01.477Z,535.04
2024-03-12T12:07:01.544Z,534.18
2024-03-12T12:08:01.456Z,541.09
2024-03-12T12:09:01.513Z,548.18
2024-03-12T12:10:01.596Z,528.70
2024-03-12T12:11:01.501Z,520.07
2024-03-12T12:12:01.439Z,544.61
2024-03-12T12:13:01.447Z,549.08
2024-03-12T12:14:02.736Z,558.71
2024-03-12T12:15:01.361Z,520.07
2024-03-12T12:16:01.451Z,502.12
2024-03-12T12:17:01.355Z,493.97
2024-03-12T12:18:01.431Z,502.50
2024-03-12T12:19:01.419Z,511.72
2024-03-12T12:20:01.333Z,520.47
2024-03-12T12:21:01.324Z,506.68
2024-03-12T12:22:01.358Z,493.61
2024-03-12T12:23:01.293Z,494.70
2024-03-12T12:24:02.241Z,522.51
2024-03-12T12:25:01.370Z,553.16
2024-03-12T12:26:01.289Z,567.23
2024-03-12T12:27:01.299Z,589.20
2024-03-12T12:28:01.305Z,589.72
2024-03-12T12:29:01.242Z,606.83
2024-03-12T12:30:04.154Z,624.96
2024-03-12T12:31:01.269Z,609.04
2024-03-12T12:32:01.242Z,601.38
2024-03-12T12:33:01.227Z,627.30
2024-03-12T12:34:01.213Z,633.24
2024-03-12T12:35:01.197Z,683.69
2024-03-12T12:36:01.200Z,731.51
2024-03-12T12:37:01.326Z,796.67
2024-03-12T12:38:01.145Z,841.71
2024-03-12T12:39:03.747Z,903.57